createdAt,value
2018-11-20T00:00:16.142Z,103381.11
2018-11-20T00:03:03.465Z,103373.51
2018-11-20T00:05:50.762Z,103382.53
2018-11-20T00:08:38.047Z,103381.58
2018-11-20T00:11:35.807Z,103377.16
2018-11-20T00:14:24.152Z,103378.97
2018-11-20T00:17:19.927Z,103376.28
2018-11-20T00:20:08.906Z,103375.39
2018-11-20T00:22:56.131Z,103368.29
2018-11-20T00:25:50.798Z,103368.29
2018-11-20T00:28:38.153Z,103363.38
2018-11-20T00:31:26.652Z,103362.49
2018-11-20T00:34:13.763Z,103364.30
2018-11-20T00:37:17.217Z,103370.56
2018-11-20T00:40:05.748Z,103366.98
2018-11-20T00:43:06.428Z,103362.08
2018-11-20T00:45:45.084Z,103358.04
2018-11-20T00:48:28.558Z,103361.15
2018-11-20T00:51:21.177Z,103359.39
2018-11-20T00:54:02.727Z,103361.61
2018-11-20T00:57:04.133Z,103360.73
2018-11-20T00:59:54.771Z,103360.73
2018-11-20T01:02:42.221Z,103350.86
2018-11-20T01:05:39.703Z,103357.20
2018-11-20T01:08:27.198Z,103351.41
2018-11-20T01:11:14.214Z,103342.45
2018-11-20T01:14:00.392Z,103339.77
2018-11-20T01:16:49.015Z,103329.09
2018-11-20T01:19:43.521Z,103329.09
2018-11-20T01:22:44.753Z,103324.64
2018-11-20T01:25:51.298Z,103320.14
2018-11-20T01:28:39.560Z,103313.88
2018-11-20T01:31:28.062Z,103315.22
2018-11-20T01:34:16.572Z,103306.28
2018-11-20T01:37:04.344Z,103304.09
2018-11-20T01:39:55.672Z,103305.43
2018-11-20T01:42:42.618Z,103305.89
2018-11-20T01:45:29.826Z,103296.95
2018-11-20T01:48:17.384Z,103293.38
2018-11-20T01:51:12.074Z,103284.93
2018-11-20T01:54:00.508Z,103289.81
2018-11-20T01:56:43.611Z,103288.08
2018-11-20T01:59:30.748Z,103284.52
2018-11-20T02:02:19.313Z,103283.17
2018-11-20T02:05:10.414Z,103281.41
2018-11-20T02:07:57.771Z,103276.99
2018-11-20T02:10:52.181Z,103272.46
2018-11-20T02:14:11.336Z,103270.27
2018-11-20T02:17:18.480Z,103270.66
2018-11-20T02:20:15.669Z,103256.87
2018-11-20T02:23:09.690Z,103261.38
2018-11-20T02:25:56.614Z,103267.25
2018-11-20T02:28:43.910Z,103256.95
2018-11-20T02:31:24.954Z,103249.36
2018-11-20T02:34:06.924Z,103249.36
2018-11-20T02:36:49.688Z,103237.34
2018-11-20T02:39:32.761Z,103240.41
2018-11-20T02:42:26.950Z,103235.03
2018-11-20T02:45:27.581Z,103235.03
2018-11-20T02:48:10.688Z,103238.60
2018-11-20T02:51:04.823Z,103236.00
2018-11-20T02:54:01.951Z,103235.50
2018-11-20T02:56:49.080Z,103238.69
2018-11-20T02:59:36.393Z,103232.89
2018-11-20T03:02:39.982Z,103229.79
2018-11-20T03:05:26.770Z,103231.21
2018-11-20T03:08:18.381Z,103225.92
2018-11-20T03:11:06.852Z,103231.76
2018-11-20T03:13:55.493Z,103225.50
2018-11-20T03:16:56.046Z,103227.73
2018-11-20T03:19:47.717Z,103225.50
2018-11-20T03:22:34.980Z,103220.13
2018-11-20T03:25:37.156Z,103218.32
2018-11-20T03:28:18.238Z,103215.68
2018-11-20T03:31:11.828Z,103209.45
2018-11-20T03:34:16.664Z,103204.92
2018-11-20T03:37:14.314Z,103198.20
2018-11-20T03:40:01.587Z,103191.10
2018-11-20T03:42:51.124Z,103188.41
2018-11-20T03:45:38.022Z,103181.25
2018-11-20T03:48:26.508Z,103184.38
2018-11-20T03:51:13.703Z,103175.41
2018-11-20T03:54:00.769Z,103174.53
2018-11-20T03:56:52.278Z,103174.53
2018-11-20T03:59:50.034Z,103176.80
2018-11-20T04:02:35.023Z,103172.29
2018-11-20T04:05:26.125Z,103172.29
2018-11-20T04:08:20.208Z,103172.72
2018-11-20T04:11:07.627Z,103160.62
2018-11-20T04:13:46.960Z,103161.53
2018-11-20T04:16:41.467Z,103165.10
2018-11-20T04:19:28.350Z,103154.81
2018-11-20T04:22:15.469Z,103147.63
2018-11-20T04:25:00.771Z,103139.12
2018-11-20T04:27:48.119Z,103138.22
2018-11-20T04:31:15.344Z,103134.19
2018-11-20T04:34:12.635Z,103129.28
2018-11-20T04:37:15.795Z,103131.52
2018-11-20T04:40:05.166Z,103124.38
2018-11-20T04:42:52.410Z,103126.14
2018-11-20T04:45:39.268Z,103117.61
2018-11-20T04:48:37.019Z,103123.04
2018-11-20T04:51:25.761Z,103126.61
2018-11-20T04:54:20.187Z,103130.64
2018-11-20T04:57:07.279Z,103123.04
2018-11-20T05:00:02.878Z,103117.66
2018-11-20T05:02:50.378Z,103124.33
2018-11-20T05:05:50.861Z,103121.22
2018-11-20T05:08:45.293Z,103119.42
2018-11-20T05:11:36.463Z,103113.17
2018-11-20T05:14:41.576Z,103110.02
2018-11-20T05:17:41.996Z,103118.08
2018-11-20T05:20:36.485Z,103112.70
2018-11-20T05:23:27.907Z,103109.13
2018-11-20T05:26:30.302Z,103114.05
2018-11-20T05:29:33.817Z,103110.89
2018-11-20T05:32:21.116Z,103109.12
2018-11-20T05:35:11.161Z,103108.67
2018-11-20T05:37:59.856Z,103105.10
2018-11-20T05:40:42.332Z,103109.60
2018-11-20T05:43:30.864Z,103112.28
2018-11-20T05:46:25.509Z,103112.70
2018-11-20T05:49:12.918Z,103108.67
2018-11-20T05:52:00.161Z,103103.30
2018-11-20T05:54:57.422Z,103100.14
2018-11-20T05:57:41.972Z,103102.42
2018-11-20T06:00:29.259Z,103098.38
2018-11-20T06:03:21.447Z,103101.48
2018-11-20T06:06:13.810Z,103092.13
2018-11-20T06:09:08.911Z,103090.32
2018-11-20T06:11:56.325Z,103094.35
2018-11-20T06:14:56.942Z,103093.97
2018-11-20T06:17:44.027Z,103090.87
2018-11-20T06:20:45.036Z,103089.98
2018-11-20T06:23:25.052Z,103096.33
2018-11-20T06:26:12.420Z,103097.67
2018-11-20T06:29:00.029Z,103095.91
2018-11-20T06:31:47.080Z,103099.53
2018-11-20T06:34:50.951Z,103093.31
2018-11-20T06:37:44.821Z,103091.00
2018-11-20T06:40:41.919Z,103084.37
2018-11-20T06:43:29.062Z,103080.34
2018-11-20T06:46:17.548Z,103081.69
2018-11-20T06:49:03.262Z,103080.34
2018-11-20T06:51:56.068Z,103075.84
2018-11-20T06:54:53.381Z,103078.12
2018-11-20T06:57:41.892Z,103085.72
2018-11-20T07:00:32.961Z,103082.61
2018-11-20T07:03:16.704Z,103081.73
2018-11-20T07:06:05.202Z,103079.92
2018-11-20T07:08:59.465Z,103076.31
2018-11-20T07:11:40.355Z,103076.69
2018-11-20T07:14:37.474Z,103070.47
2018-11-20T07:17:43.388Z,103072.66
2018-11-20T07:20:44.140Z,103073.53
2018-11-20T07:23:31.307Z,103080.25
2018-11-20T07:26:38.433Z,103074.00
2018-11-20T07:29:25.630Z,103070.94
2018-11-20T07:32:26.453Z,103068.30
2018-11-20T07:35:08.774Z,103069.17
2018-11-20T07:38:12.305Z,103066.57
2018-11-20T07:40:59.729Z,103066.48
2018-11-20T07:43:48.386Z,103071.86
2018-11-20T07:46:36.836Z,103064.68
2018-11-20T07:49:24.723Z,103061.11
2018-11-20T07:52:16.126Z,103070.05
2018-11-20T07:55:07.290Z,103070.94
2018-11-20T07:57:58.786Z,103067.70
2018-11-20T08:00:41.295Z,103066.81
2018-11-20T08:03:35.521Z,103061.86
2018-11-20T08:06:30.213Z,103062.23
2018-11-20T08:09:27.811Z,103060.89
2018-11-20T08:12:14.818Z,103048.33
2018-11-20T08:15:02.212Z,103040.69
2018-11-20T08:17:59.456Z,103038.45
2018-11-20T08:20:46.586Z,103032.99
2018-11-20T08:23:42.199Z,103030.31
2018-11-20T08:26:20.028Z,103027.16
2018-11-20T08:29:04.762Z,103023.53
2018-11-20T08:31:53.258Z,103031.08
2018-11-20T08:34:40.621Z,103031.08
2018-11-20T08:37:35.004Z,103025.16
2018-11-20T08:40:32.040Z,103027.32
2018-11-20T08:43:19.212Z,103026.30
2018-11-20T08:46:06.517Z,103032.53
2018-11-20T08:49:01.793Z,103040.53
2018-11-20T08:51:51.101Z,103040.91
2018-11-20T08:54:38.378Z,103038.64
2018-11-20T08:57:36.239Z,103043.09
2018-11-20T09:00:30.194Z,103041.66
2018-11-20T09:03:17.787Z,103044.75
2018-11-20T09:06:12.603Z,103046.02
2018-11-20T09:09:05.653Z,103041.05
2018-11-20T09:11:54.093Z,103049.48
2018-11-20T09:14:51.211Z,103033.77
2018-11-20T09:17:39.699Z,103035.53
2018-11-20T09:20:29.229Z,103026.03
2018-11-20T09:23:16.032Z,103019.72
2018-11-20T09:26:03.371Z,103016.94
2018-11-20T09:29:10.306Z,103011.56
2018-11-20T09:31:57.374Z,103003.50
2018-11-20T09:34:44.776Z,103002.06
2018-11-20T09:37:32.048Z,102996.69
2018-11-20T09:40:54.822Z,102990.47
2018-11-20T09:44:03.988Z,102987.27
2018-11-20T09:47:04.728Z,102992.27
2018-11-20T09:49:51.254Z,102990.05
2018-11-20T09:52:32.396Z,102989.59
2018-11-20T09:55:33.041Z,102993.16
2018-11-20T09:58:24.338Z,102992.19
2018-11-20T10:01:12.802Z,102990.28
2018-11-20T10:04:07.289Z,102988.00
2018-11-20T10:06:52.053Z,102980.81
2018-11-20T10:09:46.365Z,102982.07
2018-11-20T10:12:40.606Z,102980.73
2018-11-20T10:15:27.591Z,102982.95
2018-11-20T10:18:25.101Z,102981.55
2018-11-20T10:21:19.280Z,102970.38
2018-11-20T10:24:06.552Z,102972.14
2018-11-20T10:26:57.242Z,102958.69
2018-11-20T10:29:50.124Z,102961.76
2018-11-20T10:32:50.964Z,102961.76
2018-11-20T10:35:48.717Z,102959.94
2018-11-20T10:38:55.388Z,102950.06
2018-11-20T10:42:02.805Z,102947.75
2018-11-20T10:44:48.696Z,102954.47
2018-11-20T10:47:36.125Z,102956.78
2018-11-20T10:50:23.623Z,102954.01
2018-11-20T10:53:06.693Z,102949.97
2018-11-20T10:56:02.268Z,102942.78
2018-11-20T10:59:09.244Z,102941.91
2018-11-20T11:01:56.325Z,102941.44
2018-11-20T11:04:43.620Z,102931.14
2018-11-20T11:07:50.319Z,102939.16
2018-11-20T11:10:42.427Z,102933.84
2018-11-20T11:13:42.903Z,102927.52
2018-11-20T11:16:37.166Z,102920.33
2018-11-20T11:19:18.560Z,102924.74
2018-11-20T11:22:05.796Z,102931.00
2018-11-20T11:25:06.204Z,102933.69
2018-11-20T11:27:53.126Z,102935.35
2018-11-20T11:30:44.551Z,102935.35
2018-11-20T11:33:30.113Z,102934.00
2018-11-20T11:36:17.545Z,102933.91
2018-11-20T11:39:04.322Z,102937.02
2018-11-20T11:41:48.570Z,102928.47
2018-11-20T11:44:35.707Z,102918.66
2018-11-20T11:47:39.471Z,102916.38
2018-11-20T11:50:26.688Z,102915.02
2018-11-20T11:53:15.263Z,102921.34
2018-11-20T11:56:17.040Z,102910.20
2018-11-20T11:59:04.169Z,102918.66
2018-11-20T12:04:54.362Z,102921.81
2018-11-20T12:07:35.508Z,102914.62
2018-11-20T12:10:23.390Z,102912.39
2018-11-20T12:13:20.538Z,102912.39
2018-11-20T12:16:22.208Z,102908.36
2018-11-20T12:19:16.849Z,102912.89
2018-11-20T12:22:20.706Z,102915.09
2018-11-20T12:25:15.017Z,102911.55
2018-11-20T12:28:03.070Z,102920.97
2018-11-20T12:30:51.686Z,102914.24
2018-11-20T12:33:47.282Z,102919.62
2018-11-20T12:36:35.589Z,102920.55
2018-11-20T12:39:26.130Z,102920.55
2018-11-20T12:42:05.691Z,102913.83
2018-11-20T12:44:54.388Z,102918.27
2018-11-20T12:47:47.409Z,102918.66
2018-11-20T12:50:38.696Z,102924.91
2018-11-20T12:53:21.327Z,102918.19
2018-11-20T12:56:02.961Z,102912.39
2018-11-20T12:58:50.201Z,102911.93
2018-11-20T13:01:41.989Z,102918.19
2018-11-20T13:04:55.210Z,102916.43
2018-11-20T13:07:41.727Z,102912.80
2018-11-20T13:10:45.383Z,102902.98
2018-11-20T13:13:26.911Z,102902.52
2018-11-20T13:16:21.386Z,102894.07
2018-11-20T13:19:25.475Z,102889.62
2018-11-20T13:22:25.693Z,102894.07
2018-11-20T13:25:32.233Z,102890.50
2018-11-20T13:28:29.733Z,102883.78
2018-11-20T13:31:17.120Z,102876.59
2018-11-20T13:34:08.284Z,102872.14
2018-11-20T13:37:02.440Z,102873.95
2018-11-20T13:39:49.439Z,102881.09
2018-11-20T13:42:46.610Z,102868.98
2018-11-20T13:45:26.962Z,102870.33
2018-11-20T13:48:21.152Z,102868.89
2018-11-20T13:50:59.483Z,102872.86
2018-11-20T13:53:47.085Z,102882.75
2018-11-20T13:56:33.981Z,102878.63
2018-11-20T13:59:31.266Z,102877.69
2018-11-20T14:02:09.628Z,102876.81
2018-11-20T14:05:07.506Z,102873.18
2018-11-20T14:08:02.033Z,102868.73
2018-11-20T14:10:49.275Z,102871.38
2018-11-20T14:13:37.770Z,102861.08
2018-11-20T14:16:29.440Z,102857.05
2018-11-20T14:19:18.499Z,102866.83
2018-11-20T14:22:04.271Z,102854.73
2018-11-20T14:24:58.806Z,102854.26
2018-11-20T14:27:45.831Z,102865.48
2018-11-20T14:30:34.380Z,102874.44
2018-11-20T14:33:21.833Z,102869.93
2018-11-20T14:36:22.368Z,102871.27
2018-11-20T14:39:29.166Z,102870.34
2018-11-20T14:42:17.675Z,102866.30
2018-11-20T14:45:15.312Z,102870.34
2018-11-20T14:48:02.361Z,102873.03
2018-11-20T14:50:55.966Z,102869.84
2018-11-20T14:53:47.421Z,102866.30
2018-11-20T14:56:33.684Z,102859.08
2018-11-20T14:59:20.662Z,102853.23
2018-11-20T15:02:17.315Z,102854.57
2018-11-20T15:05:23.864Z,102849.19
2018-11-20T15:08:12.482Z,102853.23
2018-11-20T15:10:59.773Z,102853.23
2018-11-20T15:13:54.491Z,102845.16
2018-11-20T15:16:36.543Z,102839.41
2018-11-20T15:19:23.495Z,102838.44
2018-11-20T15:22:30.168Z,102842.47
2018-11-20T15:25:23.032Z,102829.89
2018-11-20T15:27:59.182Z,102827.67
2018-11-20T15:31:00.095Z,102843.81
2018-11-20T15:33:59.141Z,102853.23
2018-11-20T15:36:59.947Z,102858.14
2018-11-20T15:39:47.224Z,102853.64
2018-11-20T15:42:34.226Z,102848.73
2018-11-20T15:45:22.723Z,102858.14
2018-11-20T15:48:26.535Z,102862.64
2018-11-20T15:51:13.905Z,102859.95
2018-11-20T15:54:17.552Z,102857.67
2018-11-20T15:57:10.358Z,102862.64
2018-11-20T16:00:14.389Z,102872.53
2018-11-20T16:03:23.311Z,102878.78
2018-11-20T16:06:08.432Z,102880.13
2018-11-20T16:09:03.663Z,102889.55
2018-11-20T16:12:04.041Z,102890.52
2018-11-20T16:14:56.305Z,102880.59
2018-11-20T16:17:43.892Z,102872.06
2018-11-20T16:20:33.721Z,102869.78
2018-11-20T16:23:21.928Z,102872.47
2018-11-20T16:26:01.625Z,102867.09
2018-11-20T16:28:58.904Z,102869.37
2018-11-20T16:31:47.529Z,102870.66
2018-11-20T16:34:36.091Z,102872.84
2018-11-20T16:37:24.806Z,102879.09
2018-11-20T16:40:12.042Z,102882.66
2018-11-20T16:42:59.030Z,102879.09
2018-11-20T16:45:49.954Z,102884.01
2018-11-20T16:48:32.522Z,102900.15
2018-11-20T16:51:33.343Z,102884.01
2018-11-20T16:54:14.685Z,102878.53
2018-11-20T16:57:05.783Z,102870.97
2018-11-20T16:59:54.353Z,102880.85
2018-11-20T17:02:48.728Z,102885.77
2018-11-20T17:05:52.596Z,102881.23
2018-11-20T17:08:43.796Z,102878.16
2018-11-20T17:11:47.532Z,102881.32
2018-11-20T17:14:37.036Z,102878.63
2018-11-20T17:17:28.158Z,102881.78
2018-11-20T17:20:28.471Z,102882.76
2018-11-20T17:23:15.790Z,102897.05
2018-11-20T17:26:03.426Z,102899.74
2018-11-20T17:28:50.617Z,102895.80
2018-11-20T17:31:38.079Z,102883.23
2018-11-20T17:35:16.621Z,102888.98
2018-11-20T17:38:07.427Z,102902.94
2018-11-20T17:41:01.094Z,102898.02
2018-11-20T17:43:51.459Z,102909.16
2018-11-20T17:46:33.116Z,102902.94
2018-11-20T17:49:19.391Z,102906.00
2018-11-20T17:52:06.040Z,102926.27
2018-11-20T17:54:41.672Z,102935.22
2018-11-20T17:57:26.560Z,102929.89
2018-11-20T18:00:23.365Z,102927.20
2018-11-20T18:03:19.850Z,102941.06
2018-11-20T18:05:57.925Z,102946.03
2018-11-20T18:08:44.079Z,102951.41
2018-11-20T18:11:34.301Z,102945.66
2018-11-20T18:14:27.919Z,102950.16
2018-11-20T18:17:20.315Z,102938.05
2018-11-20T18:20:04.774Z,102926.89
2018-11-20T18:22:58.458Z,102927.77
2018-11-20T18:25:52.049Z,102947.00
2018-11-20T18:28:45.753Z,102936.72
2018-11-20T18:31:48.603Z,102930.92
2018-11-20T18:34:45.207Z,102924.66
2018-11-20T18:37:17.083Z,102916.22
2018-11-20T18:40:09.403Z,102925.17
2018-11-20T18:43:12.054Z,102935.92
2018-11-20T18:45:58.625Z,102934.08
2018-11-20T18:48:45.291Z,102926.52
2018-11-20T18:51:42.205Z,102926.98
2018-11-20T18:54:38.746Z,102921.19
2018-11-20T18:57:37.757Z,102938.67
2018-11-20T19:00:34.112Z,102948.97
2018-11-20T19:03:27.594Z,102940.48
2018-11-20T19:06:17.138Z,102946.28
2018-11-20T19:09:04.889Z,102950.31
2018-11-20T19:12:03.815Z,102947.16
2018-11-20T19:14:54.578Z,102939.96
2018-11-20T19:17:42.212Z,102935.92
2018-11-20T19:20:32.869Z,102942.56
2018-11-20T19:23:19.258Z,102937.65
2018-11-20T19:26:16.249Z,102930.45
2018-11-20T19:29:03.007Z,102934.90
2018-11-20T19:32:05.682Z,102937.59
2018-11-20T19:34:55.921Z,102931.70
2018-11-20T19:37:42.392Z,102926.83
2018-11-20T19:40:35.888Z,102928.17
2018-11-20T19:43:22.203Z,102933.93
2018-11-20T19:46:18.768Z,102937.09
2018-11-20T19:49:05.910Z,102932.12
2018-11-20T19:52:02.467Z,102943.29
2018-11-20T19:54:49.284Z,102945.47
2018-11-20T19:57:36.939Z,102950.39
2018-11-20T20:00:23.085Z,102948.58
2018-11-20T20:03:09.406Z,102958.87
2018-11-20T20:06:09.221Z,102957.05
2018-11-20T20:08:56.914Z,102959.75
2018-11-20T20:11:45.096Z,102963.78
2018-11-20T20:14:32.727Z,102961.94
2018-11-20T20:17:20.489Z,102974.04
2018-11-20T20:20:11.307Z,102971.30
2018-11-20T20:22:50.007Z,102978.02
2018-11-20T20:25:42.458Z,102978.90
2018-11-20T20:28:23.438Z,102977.08
2018-11-20T20:31:13.974Z,102977.08
2018-11-20T20:34:00.347Z,102984.19
2018-11-20T20:36:54.228Z,102983.31
2018-11-20T20:39:40.567Z,102983.81
2018-11-20T20:42:31.061Z,102985.53
2018-11-20T20:45:27.776Z,102988.69
2018-11-20T20:48:14.190Z,102994.48
2018-11-20T20:51:03.498Z,102993.92
2018-11-20T20:53:52.122Z,102994.80
2018-11-20T20:56:39.822Z,102993.86
2018-11-20T20:59:31.271Z,102999.62
2018-11-20T21:02:18.913Z,102999.62
2018-11-20T21:05:06.461Z,103002.16
2018-11-20T21:07:52.686Z,103003.91
2018-11-20T21:10:40.442Z,103014.59
2018-11-20T21:13:40.323Z,103006.05
2018-11-20T21:16:26.700Z,103005.17
2018-11-20T21:19:14.379Z,103004.30
2018-11-20T21:22:20.314Z,103005.58
2018-11-20T21:25:03.698Z,103002.95
2018-11-20T21:27:50.367Z,103002.02
2018-11-20T21:30:37.520Z,103001.13
2018-11-20T21:33:36.501Z,103012.31
2018-11-20T21:36:27.495Z,103017.28
2018-11-20T21:39:24.231Z,103012.37
2018-11-20T21:42:11.870Z,103010.08
2018-11-20T21:45:02.744Z,103013.66
2018-11-20T21:47:49.470Z,103022.57
2018-11-20T21:50:37.161Z,103019.87
2018-11-20T21:53:27.943Z,103011.43
2018-11-20T21:56:14.290Z,103013.66
2018-11-20T21:59:08.208Z,103035.59
2018-11-20T22:02:14.795Z,103031.09
2018-11-20T22:05:17.407Z,103030.64
2018-11-20T22:08:11.195Z,103036.47
2018-11-20T22:10:57.482Z,103043.25
2018-11-20T22:13:40.023Z,103038.72
2018-11-20T22:16:27.667Z,103040.97
2018-11-20T22:19:14.010Z,103049.48
2018-11-20T22:22:01.663Z,103036.94
2018-11-20T22:24:49.303Z,103040.51
2018-11-20T22:27:52.170Z,103040.97
2018-11-20T22:30:36.433Z,103047.70
2018-11-20T22:33:23.019Z,103052.15
2018-11-20T22:36:09.625Z,103053.96
2018-11-20T22:39:06.428Z,103048.99
2018-11-20T22:41:54.058Z,103054.75
2018-11-20T22:44:40.517Z,103057.06
2018-11-20T22:47:26.929Z,103057.13
2018-11-20T22:50:20.625Z,103063.38
2018-11-20T22:53:08.279Z,103070.52
2018-11-20T22:55:55.908Z,103074.61
2018-11-20T22:58:52.552Z,103080.42
2018-11-20T23:01:42.845Z,103081.77
2018-11-20T23:04:35.942Z,103084.97
2018-11-20T23:07:29.397Z,103080.05
2018-11-20T23:09:57.999Z,103084.97
2018-11-20T23:12:26.577Z,103093.09
2018-11-20T23:14:55.253Z,103087.71
2018-11-20T23:17:23.854Z,103095.78
2018-11-20T23:19:52.518Z,103092.16
2018-11-20T23:22:21.123Z,103091.70
2018-11-20T23:24:49.698Z,103097.13
2018-11-20T23:27:18.281Z,103100.23
2018-11-20T23:29:46.887Z,103094.85
2018-11-20T23:32:15.616Z,103095.32
2018-11-20T23:34:44.207Z,103099.36
2018-11-20T23:37:12.801Z,103100.70
2018-11-20T23:39:41.509Z,103097.13
2018-11-20T23:42:10.272Z,103102.52
2018-11-20T23:44:39.326Z,103101.58
2018-11-20T23:47:07.909Z,103105.61
2018-11-20T23:49:36.554Z,103101.64
2018-11-20T23:52:05.217Z,103095.78
2018-11-20T23:54:33.832Z,103104.83
2018-11-20T23:57:02.743Z,103099.45
2018-11-20T23:59:31.362Z,103110.21
